Terminal Aerodrome Forecast
Issued by NWS Charleston, WV

Current Version | Previous Version | Text Only | Print | Product List | Glossary Off
Versions: 1 2 3 4 5 6 7 8 9 10 11 12 13 14 15 16 17 18 19 20 21 22

677
FTUS41 KRLX 281447 AAA
TAFBKW
TAF AMD
KBKW 281447Z 2815/2912 27008KT P6SM VCSH SCT009 BKN015 OVC025
      TEMPO 2815/2817 BKN009 BKN015 OVC025
     FM282300 30007KT P6SM BKN015
     FM290200 32005KT P6SM BKN006=

USA.gov is the U.S. government's official web portal to all federal, state and local government web resources and services.